Time;durP1;ratioP1;P1;durP2;ratioP2;P2;SDS_P1;SDS_P2;PMS_P1;PMS_P2;Temp;Humidity;BMP_temperature;BMP_pressure;BME280_temperature;BME280_humidity;BME280_pressure;Samples;Min_cycle;Max_cycle;Signal;HPM_P1;HPM_P2
2022/05/13 00:01:18;;;;;;;6.03;5.53;;;;;;;17.97;90.37;95774.44;4376464;32;20191;-62
2022/05/13 00:03:45;;;;;;;5.80;5.30;;;;;;;18.00;90.10;95771.09;4367821;32;20181;-62
2022/05/13 00:06:12;;;;;;;6.93;5.23;;;;;;;17.96;89.74;95770.97;4371437;32;20180;-62
2022/05/13 00:08:39;;;;;;;5.40;4.97;;;;;;;18.00;89.82;95769.22;4378953;32;20278;-63
2022/05/13 00:11:07;;;;;;;8.67;5.57;;;;;;;17.96;90.24;95773.66;4384361;32;20222;-63
2022/05/13 00:13:35;;;;;;;5.90;5.40;;;;;;;17.98;90.97;95760.69;4386391;32;20184;-63
2022/05/13 00:16:00;;;;;;;5.50;5.03;;;;;;;17.89;90.02;95761.88;4366112;32;20180;-62
2022/05/13 00:18:27;;;;;;;6.57;6.03;;;;;;;18.07;89.26;95766.00;4343183;32;20180;-62
2022/05/13 00:20:54;;;;;;;6.67;6.17;;;;;;;18.02;90.49;95761.63;4387924;32;20267;-62
2022/05/13 00:23:21;;;;;;;10.43;5.57;;;;;;;17.84;91.29;95768.25;4391739;32;20277;-62
2022/05/13 00:25:46;;;;;;;9.60;6.20;;;;;;;17.94;90.73;95764.38;4403684;32;20184;-62
2022/05/13 00:28:14;;;;;;;6.47;6.07;;;;;;;17.76;91.75;95769.09;4366349;32;20192;-62
2022/05/13 00:30:44;;;;;;;6.03;5.43;;;;;;;17.76;92.44;95772.56;4372073;32;20176;-62
2022/05/13 00:33:21;;;;;;;7.40;6.70;;;;;;;17.74;92.30;95769.41;4375897;32;20264;-61
2022/05/13 00:35:51;;;;;;;11.50;5.93;;;;;;;17.68;92.66;95762.66;4406376;32;20220;-62
2022/05/13 00:38:17;;;;;;;7.23;6.37;;;;;;;17.65;92.07;95760.66;4369148;32;20188;-62
2022/05/13 00:40:45;;;;;;;5.40;4.97;;;;;;;17.65;93.07;95752.59;4354943;32;20184;-62
2022/05/13 00:43:37;;;;;;;5.90;5.40;;;;;;;17.75;91.48;95754.09;4352127;32;20249;-62
2022/05/13 00:46:05;;;;;;;6.57;6.17;;;;;;;17.83;91.41;95754.03;4359935;32;20181;-63
2022/05/13 00:48:32;;;;;;;6.17;5.27;;;;;;;17.91;91.94;95756.97;4389465;32;20176;-63
2022/05/13 00:50:59;;;;;;;7.10;5.93;;;;;;;17.87;91.01;95756.06;4378815;32;20184;-62
2022/05/13 00:53:25;;;;;;;6.80;6.20;;;;;;;17.84;91.25;95752.94;4380330;32;20189;-61
2022/05/13 00:55:53;;;;;;;5.90;5.53;;;;;;;17.84;91.40;95741.41;4390315;32;20276;-62
2022/05/13 00:58:23;;;;;;;5.93;5.43;;;;;;;17.93;90.50;95758.22;4377893;32;20185;-62
2022/05/13 01:00:50;;;;;;;6.33;5.80;;;;;;;17.81;91.17;95750.91;4380584;32;20284;-62
2022/05/13 01:03:16;;;;;;;6.17;5.60;;;;;;;17.83;90.83;95748.66;4383442;32;20188;-62
2022/05/13 01:05:50;;;;;;;6.33;5.73;;;;;;;17.79;91.32;95753.13;4382763;32;20177;-63
2022/05/13 01:08:15;;;;;;;5.90;5.57;;;;;;;17.81;90.75;95756.25;4388183;32;20200;-62
2022/05/13 01:10:44;;;;;;;7.03;6.43;;;;;;;17.73;91.58;95750.94;4375221;32;20205;-62
2022/05/13 01:13:14;;;;;;;6.50;6.00;;;;;;;17.66;91.98;95753.41;4386160;32;20240;-62
2022/05/13 01:15:43;;;;;;;7.00;6.50;;;;;;;17.78;90.77;95753.44;4366422;32;20237;-62
2022/05/13 01:18:11;;;;;;;7.07;6.50;;;;;;;17.77;91.67;95744.59;4361634;32;20219;-62
2022/05/13 01:20:50;;;;;;;6.70;6.10;;;;;;;17.78;91.59;95746.19;4382726;32;20181;-62
2022/05/13 01:23:26;;;;;;;5.90;5.50;;;;;;;17.80;91.33;95746.63;4374350;32;20186;-62
2022/05/13 01:25:56;;;;;;;6.50;6.00;;;;;;;17.82;91.14;95749.00;4387325;32;20176;-62
2022/05/13 01:28:33;;;;;;;5.33;4.83;;;;;;;17.84;90.65;95752.12;4388009;32;20180;-62
2022/05/13 01:31:31;;;;;;;6.13;5.73;;;;;;;17.97;90.04;95736.84;4373783;32;20195;-62
2022/05/13 01:34:06;;;;;;;5.63;5.30;;;;;;;18.01;90.36;95738.56;4387069;32;20176;-62
2022/05/13 01:36:32;;;;;;;5.97;5.40;;;;;;;18.02;89.67;95745.50;4342560;32;20199;-62
2022/05/13 01:38:58;;;;;;;5.70;5.37;;;;;;;17.79;91.56;95737.00;4374373;32;20177;-62
2022/05/13 01:41:26;;;;;;;6.60;6.00;;;;;;;17.76;91.01;95732.28;4376870;32;20305;-62
2022/05/13 01:43:56;;;;;;;5.57;5.17;;;;;;;17.77;91.40;95739.25;4373464;32;20373;-63
2022/05/13 01:46:22;;;;;;;5.03;4.73;;;;;;;17.79;90.83;95742.38;4376489;32;20189;-62
2022/05/13 01:48:49;;;;;;;6.33;5.83;;;;;;;17.85;90.02;95746.44;4344239;32;20232;-62
2022/05/13 01:51:17;;;;;;;6.30;5.73;;;;;;;17.93;90.78;95757.41;4368237;32;20190;-63
2022/05/13 01:53:44;;;;;;;5.20;4.80;;;;;;;17.77;91.72;95749.97;4386665;32;20199;-62
2022/05/13 01:56:12;;;;;;;6.03;5.53;;;;;;;17.84;90.40;95750.25;4369406;32;20181;-62
2022/05/13 01:58:39;;;;;;;7.30;6.03;;;;;;;17.84;91.64;95752.12;4376898;32;20281;-61
2022/05/13 02:01:07;;;;;;;5.90;5.40;;;;;;;17.83;90.84;95756.72;4388430;32;20180;-61
2022/05/13 02:03:47;;;;;;;6.40;5.97;;;;;;;17.68;91.90;95764.56;4381224;32;20211;-61
2022/05/13 02:06:28;;;;;;;6.27;5.83;;;;;;;17.64;92.61;95761.78;4374494;32;20176;-63
2022/05/13 02:08:59;;;;;;;5.77;5.47;;;;;;;17.55;93.01;95752.94;4381769;32;20203;-60
2022/05/13 02:11:27;;;;;;;6.20;5.70;;;;;;;17.56;92.89;95753.75;4379506;32;20184;-59
2022/05/13 02:13:54;;;;;;;6.23;5.73;;;;;;;17.60;92.28;95750.09;4356872;32;20231;-60
2022/05/13 02:16:21;;;;;;;6.63;5.97;;;;;;;17.62;91.84;95749.75;4386265;32;20203;-60
2022/05/13 02:18:48;;;;;;;6.60;6.10;;;;;;;17.56;93.35;95746.47;4387885;32;20241;-60
2022/05/13 02:21:16;;;;;;;6.67;6.07;;;;;;;17.46;93.27;95752.22;4375256;32;20269;-61
2022/05/13 02:23:43;;;;;;;6.17;5.53;;;;;;;17.42;93.76;95752.09;4374910;32;20196;-60
2022/05/13 02:26:12;;;;;;;6.77;6.07;;;;;;;17.43;92.94;95753.69;4386994;32;20222;-60
2022/05/13 02:28:41;;;;;;;7.50;6.13;;;;;;;17.45;93.81;95742.63;4368637;32;20243;-61
2022/05/13 02:31:08;;;;;;;6.60;6.10;;;;;;;17.32;94.20;95743.62;4365493;32;20268;-61
2022/05/13 02:33:34;;;;;;;6.23;5.77;;;;;;;17.46;93.20;95738.81;4367522;32;20256;-62
2022/05/13 02:36:00;;;;;;;7.03;6.43;;;;;;;17.40;93.01;95748.19;4375551;32;20172;-61
2022/05/13 02:38:27;;;;;;;6.47;6.17;;;;;;;17.42;93.45;95745.94;4370786;32;20180;-61
2022/05/13 02:43:55;;;;;;;7.53;6.83;;;;;;;17.40;93.12;95754.31;4376914;32;20211;-61
2022/05/13 02:46:27;;;;;;;5.57;5.13;;;;;;;17.42;93.43;95749.41;4376633;32;20196;-61
2022/05/13 02:48:54;;;;;;;6.80;6.20;;;;;;;17.42;92.20;95751.31;4386484;32;20284;-61
2022/05/13 02:51:21;;;;;;;6.10;5.60;;;;;;;17.49;93.16;95743.53;4347535;32;20783;-61
2022/05/13 02:53:47;;;;;;;6.27;5.83;;;;;;;17.43;92.63;95744.84;4362520;32;20184;-61
2022/05/13 02:56:14;;;;;;;6.50;5.90;;;;;;;17.35;92.75;95748.34;4381016;32;20219;-61
2022/05/13 02:58:41;;;;;;;6.00;5.60;;;;;;;17.36;92.80;95750.72;4385151;32;20206;-60
2022/05/13 03:01:10;;;;;;;6.07;5.67;;;;;;;17.34;92.47;95746.78;4373445;32;20204;-61
2022/05/13 03:03:43;;;;;;;6.60;6.13;;;;;;;17.38;92.76;95739.66;4386254;32;20190;-60
2022/05/13 03:06:10;;;;;;;6.83;6.00;;;;;;;17.34;93.51;95744.09;4377477;32;20269;-61
2022/05/13 03:08:37;;;;;;;6.83;6.33;;;;;;;17.39;92.75;95751.97;4359776;32;20184;-60
2022/05/13 03:11:07;;;;;;;7.73;7.00;;;;;;;17.32;93.80;95740.97;4371543;32;20180;-62
2022/05/13 03:13:34;;;;;;;7.43;6.17;;;;;;;17.15;94.65;95748.00;4380580;32;20193;-62
2022/05/13 03:16:18;;;;;;;6.93;6.33;;;;;;;17.15;94.71;95739.97;4341101;32;20189;-61
2022/05/13 03:18:59;;;;;;;8.87;6.67;;;;;;;17.08;95.18;95744.25;4344013;32;20203;-61
2022/05/13 03:21:26;;;;;;;6.77;6.27;;;;;;;17.20;94.16;95743.56;4377935;32;20194;-61
2022/05/13 03:23:54;;;;;;;7.30;6.53;;;;;;;17.22;93.68;95741.34;4367525;32;20267;-61
2022/05/13 03:26:22;;;;;;;6.57;6.03;;;;;;;17.37;93.05;95738.09;4380481;32;20204;-62
2022/05/13 03:28:49;;;;;;;6.30;5.00;;;;;;;17.51;91.40;95734.03;4384510;32;20211;-62
2022/05/13 03:31:19;;;;;;;6.43;5.40;;;;;;;17.55;91.10;95728.03;4374830;32;20233;-61
2022/05/13 03:33:44;;;;;;;5.70;5.30;;;;;;;17.50;90.95;95740.50;4354903;32;20207;-61
2022/05/13 03:36:12;;;;;;;5.40;5.00;;;;;;;17.50;91.80;95737.84;4357859;32;20189;-61
2022/05/13 03:38:40;;;;;;;6.17;5.77;;;;;;;17.43;91.22;95736.78;4374435;32;20259;-61
2022/05/13 03:41:07;;;;;;;5.47;5.10;;;;;;;17.37;91.75;95730.03;4387753;32;20226;-60
2022/05/13 03:43:32;;;;;;;5.00;4.70;;;;;;;17.40;91.01;95729.41;4373950;32;20185;-62
2022/05/13 03:45:59;;;;;;;5.00;4.50;;;;;;;17.50;90.08;95729.00;4362717;32;20196;-61
2022/05/13 03:48:25;;;;;;;4.57;4.37;;;;;;;17.36;90.80;95723.91;4350537;32;20202;-60
2022/05/13 03:50:52;;;;;;;4.67;4.27;;;;;;;17.38;90.27;95715.53;4357498;32;20245;-60
2022/05/13 03:53:18;;;;;;;4.60;4.30;;;;;;;17.43;89.73;95718.03;4364403;32;20207;-60
2022/05/13 03:55:45;;;;;;;4.80;4.43;;;;;;;17.48;89.62;95720.47;4391053;32;20204;-60
2022/05/13 03:58:11;;;;;;;6.07;4.27;;;;;;;17.47;89.52;95710.87;4383504;32;20204;-62
2022/05/13 04:00:36;;;;;;;4.47;4.17;;;;;;;17.52;89.16;95716.03;4390602;32;20214;-61
2022/05/13 04:03:03;;;;;;;3.93;3.73;;;;;;;17.42;89.24;95716.44;4343949;32;20212;-61
2022/05/13 04:10:58;;;;;;;3.80;3.60;;;;;;;17.58;88.28;95712.06;4370380;32;20210;-61
2022/05/13 04:16:10;;;;;;;4.53;3.90;;;;;;;17.67;87.92;95726.19;4379285;32;20203;-61
2022/05/13 04:18:41;;;;;;;4.07;3.63;;;;;;;17.68;87.84;95725.09;4390267;32;20180;-60
2022/05/13 04:21:16;;;;;;;9.40;3.80;;;;;;;17.68;87.62;95730.47;4376046;32;20187;-61
2022/05/13 04:23:46;;;;;;;7.70;4.17;;;;;;;17.75;87.55;95733.41;4390672;32;20217;-61
2022/05/13 04:26:13;;;;;;;4.87;4.47;;;;;;;17.73;87.59;95735.63;4384157;32;20179;-60
2022/05/13 04:28:44;;;;;;;4.70;4.30;;;;;;;17.71;88.12;95735.19;4359332;32;20180;-61
2022/05/13 04:31:09;;;;;;;4.70;4.30;;;;;;;17.68;88.03;95725.09;4371985;32;20241;-61
2022/05/13 04:33:37;;;;;;;4.57;3.83;;;;;;;17.75;88.02;95730.72;4378064;32;20204;-61
2022/05/13 04:36:11;;;;;;;4.77;4.37;;;;;;;17.74;87.55;95734.53;4383376;32;20223;-61
2022/05/13 04:38:37;;;;;;;4.33;3.03;;;;;;;17.66;88.64;95727.34;4373763;32;20180;-61
2022/05/13 04:43:53;;;;;;;4.13;3.77;;;;;;;17.78;87.67;95743.50;4389107;32;20285;-61
2022/05/13 04:46:18;;;;;;;4.10;3.27;;;;;;;17.78;87.62;95750.75;4375406;32;20225;-61
2022/05/13 04:48:48;;;;;;;2.83;2.67;;;;;;;17.75;87.97;95749.50;4367532;32;20181;-60
2022/05/13 04:51:22;;;;;;;2.67;2.07;;;;;;;17.83;87.88;95750.56;4387275;32;20202;-62
2022/05/13 04:53:50;;;;;;;5.67;2.73;;;;;;;17.80;87.29;95751.22;4373543;32;20189;-61
2022/05/13 04:56:17;;;;;;;2.20;2.10;;;;;;;17.84;87.64;95768.25;4373121;32;20203;-61
2022/05/13 04:58:42;;;;;;;2.60;2.40;;;;;;;17.80;87.97;95765.44;4380372;32;20184;-61
2022/05/13 05:01:11;;;;;;;3.13;2.93;;;;;;;17.79;88.11;95766.53;4388320;32;20269;-61
2022/05/13 05:03:40;;;;;;;1.90;1.80;;;;;;;17.74;88.25;95771.31;4381883;32;20180;-61
2022/05/13 05:06:08;;;;;;;2.30;2.10;;;;;;;17.87;87.85;95764.13;4378612;32;20172;-61
2022/05/13 05:08:38;;;;;;;0.70;0.70;;;;;;;17.85;88.50;95764.44;4363187;32;20252;-61
2022/05/13 05:11:08;;;;;;;6.17;1.97;;;;;;;17.82;88.20;95760.53;4384239;32;20240;-60
2022/05/13 05:13:38;;;;;;;2.33;1.00;;;;;;;17.84;87.95;95760.97;4342284;32;20188;-59
2022/05/13 05:16:08;;;;;;;1.07;1.07;;;;;;;17.80;88.57;95770.00;4384979;32;20256;-60
2022/05/13 05:18:37;;;;;;;2.23;0.63;;;;;;;17.82;88.00;95773.94;4386310;32;20219;-60
2022/05/13 05:21:07;;;;;;;2.37;2.27;;;;;;;17.93;88.75;95786.94;4353871;32;20172;-59
2022/05/13 05:23:38;;;;;;;1.23;1.13;;;;;;;17.83;88.66;95788.94;4393794;32;20205;-61
2022/05/13 05:26:11;;;;;;;0.77;0.77;;;;;;;17.91;88.87;95786.50;4390922;32;20172;-61
2022/05/13 05:28:39;;;;;;;0.63;0.63;;;;;;;17.82;88.38;95790.03;4369153;32;20173;-60
2022/05/13 05:31:12;;;;;;;1.00;1.00;;;;;;;17.81;87.00;95798.41;4377442;32;20176;-61
2022/05/13 05:33:39;;;;;;;1.47;1.37;;;;;;;17.74;87.56;95795.47;4391537;32;20176;-60
2022/05/13 05:36:08;;;;;;;1.27;1.27;;;;;;;17.71;86.68;95794.22;4374065;32;20184;-60
2022/05/13 05:38:35;;;;;;;1.20;1.20;;;;;;;17.71;87.38;95804.16;4380579;32;20184;-61
2022/05/13 05:41:05;;;;;;;0.70;0.70;;;;;;;17.68;86.80;95799.44;4387215;32;20180;-60
2022/05/13 05:43:35;;;;;;;1.00;1.00;;;;;;;17.70;86.99;95797.22;4386287;32;20198;-61
2022/05/13 05:46:01;;;;;;;0.80;0.80;;;;;;;17.73;86.42;95812.69;4382778;32;20191;-61
2022/05/13 05:48:27;;;;;;;0.90;0.90;;;;;;;17.80;86.40;95808.37;4383050;32;20177;-60
2022/05/13 05:50:55;;;;;;;0.90;0.90;;;;;;;17.84;84.84;95809.28;4370617;32;20337;-60
2022/05/13 05:59:01;;;;;;;3.13;2.03;;;;;;;18.28;81.55;95807.03;4361545;32;20203;-46
2022/05/13 06:01:30;;;;;;;1.10;1.10;;;;;;;18.42;81.49;95815.59;4366380;32;20207;-43
2022/05/13 06:03:56;;;;;;;1.13;1.03;;;;;;;18.61;80.40;95820.50;4371216;32;20259;-43
2022/05/13 06:06:23;;;;;;;1.70;1.37;;;;;;;18.68;80.45;95811.91;4373322;32;20303;-43
2022/05/13 06:08:54;;;;;;;0.50;0.50;;;;;;;18.88;78.00;95816.41;4355992;32;20285;-46
2022/05/13 06:11:23;;;;;;;0.97;0.97;;;;;;;18.81;79.05;95805.41;4377179;32;20204;-43
2022/05/13 06:13:53;;;;;;;0.70;0.70;;;;;;;18.89;79.39;95809.94;4375073;32;20239;-44
2022/05/13 06:16:22;;;;;;;0.97;0.97;;;;;;;18.97;78.81;95817.09;4360177;32;20227;-46
2022/05/13 06:18:49;;;;;;;0.87;0.87;;;;;;;18.82;81.27;95810.47;4387900;32;20249;-44
2022/05/13 06:21:14;;;;;;;1.13;0.53;;;;;;;18.86;79.56;95805.22;4364554;32;20188;-44
2022/05/13 06:23:41;;;;;;;1.10;1.10;;;;;;;18.99;78.75;95806.78;4377257;32;20211;-42
2022/05/13 06:26:08;;;;;;;0.87;0.50;;;;;;;19.00;78.92;95821.81;4378609;32;20212;-45
2022/05/13 06:28:34;;;;;;;0.50;0.50;;;;;;;18.90;79.40;95819.56;4366982;32;20242;-47
2022/05/13 06:31:01;;;;;;;0.90;0.90;;;;;;;18.86;80.08;95815.97;4387569;32;20181;-43
2022/05/13 06:33:29;;;;;;;3.23;0.93;;;;;;;18.93;79.05;95810.81;4380320;32;20188;-47
2022/05/13 06:35:55;;;;;;;0.57;0.57;;;;;;;18.88;81.08;95813.72;4388412;32;20184;-43
2022/05/13 06:38:25;;;;;;;1.70;1.07;;;;;;;18.98;79.33;95815.97;4384077;32;20291;-43
2022/05/13 06:40:52;;;;;;;0.67;0.67;;;;;;;18.95;79.56;95819.31;4372057;32;20279;-43
2022/05/13 06:43:21;;;;;;;0.90;0.90;;;;;;;18.96;80.86;95807.44;4357714;32;20185;-46
2022/05/13 06:45:48;;;;;;;0.80;0.80;;;;;;;18.96;80.08;95815.50;4368899;32;20165;-43
2022/05/13 06:48:15;;;;;;;0.47;0.47;;;;;;;19.07;80.32;95811.28;4334151;32;20196;-47
2022/05/13 06:50:47;;;;;;;0.50;0.50;;;;;;;19.05;80.81;95812.75;4368466;32;20195;-47
2022/05/13 06:53:21;;;;;;;1.60;0.70;;;;;;;19.11;79.55;95806.03;4353253;32;20183;-46
2022/05/13 06:55:46;;;;;;;0.80;0.80;;;;;;;19.18;79.80;95812.41;4380834;32;20213;-44
2022/05/13 06:58:14;;;;;;;0.50;0.50;;;;;;;19.12;81.05;95802.97;4364571;32;20192;-43
2022/05/13 07:00:43;;;;;;;0.97;0.97;;;;;;;19.14;80.28;95808.81;4366790;32;20216;-45
2022/05/13 07:03:15;;;;;;;0.73;0.73;;;;;;;19.06;81.24;95804.34;4376847;32;20224;-44
2022/05/13 07:05:41;;;;;;;1.00;1.00;;;;;;;19.02;82.54;95803.44;4371704;32;20271;-44
2022/05/13 07:08:13;;;;;;;0.37;0.37;;;;;;;19.02;82.37;95808.03;4363831;32;20219;-45
2022/05/13 07:10:42;;;;;;;0.93;0.93;;;;;;;19.20;80.21;95804.78;4368437;32;20223;-46
2022/05/13 07:13:11;;;;;;;0.63;0.63;;;;;;;19.10;81.90;95799.06;4344298;32;20233;-46
2022/05/13 07:15:36;;;;;;;0.80;0.80;;;;;;;19.02;83.16;95789.97;4371803;32;20203;-46
2022/05/13 07:18:02;;;;;;;1.00;1.00;;;;;;;19.05;82.90;95794.69;4358678;32;20200;-46
2022/05/13 07:20:28;;;;;;;0.77;0.77;;;;;;;19.23;81.67;95793.34;4394815;32;20196;-43
2022/05/13 07:22:59;;;;;;;1.50;1.50;;;;;;;19.15;81.83;95786.16;4381138;32;20184;-44
2022/05/13 07:25:31;;;;;;;1.27;1.27;;;;;;;18.99;86.49;95782.59;4390814;32;20180;-47
2022/05/13 07:28:08;;;;;;;0.93;0.90;;;;;;;18.99;83.68;95784.47;4388611;32;20199;-48
2022/05/13 07:30:33;;;;;;;1.20;1.20;;;;;;;19.14;82.07;95792.66;4373609;32;20210;-44
2022/05/13 07:33:00;;;;;;;0.50;0.50;;;;;;;19.16;82.41;95795.81;4362633;32;20244;-45
2022/05/13 07:35:28;;;;;;;1.50;1.50;;;;;;;19.10;82.63;95797.16;4384136;32;20189;-43
2022/05/13 07:37:53;;;;;;;0.40;0.40;;;;;;;19.10;83.21;95796.38;4348307;32;20191;-46
2022/05/13 07:43:05;;;;;;;1.43;1.33;;;;;;;19.36;82.82;95802.19;4366740;32;20219;-44
2022/05/13 07:45:30;;;;;;;1.03;1.03;;;;;;;19.65;80.76;95800.41;4388538;32;20192;-46
2022/05/13 07:47:56;;;;;;;1.10;1.10;;;;;;;19.89;79.37;95797.66;4396754;32;20237;-47
2022/05/13 07:50:24;;;;;;;1.00;1.00;;;;;;;19.97;79.05;95804.03;4360991;32;20309;-46
2022/05/13 07:52:51;;;;;;;1.00;1.00;;;;;;;19.85;80.12;95796.78;4380267;32;20240;-45
2022/05/13 07:55:17;;;;;;;0.50;0.50;;;;;;;19.72;80.82;95795.25;4355382;32;20192;-44
2022/05/13 07:57:43;;;;;;;0.93;0.93;;;;;;;19.93;78.74;95787.78;4374762;32;20207;-43
2022/05/13 08:00:25;;;;;;;0.23;0.23;;;;;;;20.10;78.49;95792.09;4358661;32;20243;-43
2022/05/13 08:03:05;;;;;;;0.90;0.90;;;;;;;20.22;77.63;95792.84;4379278;32;20352;-46
2022/05/13 08:05:38;;;;;;;1.50;1.40;;;;;;;20.22;78.85;95789.34;4371295;32;20200;-48
2022/05/13 08:08:08;;;;;;;1.73;1.47;;;;;;;20.38;76.46;95792.91;4376125;32;20176;-44
2022/05/13 08:10:37;;;;;;;1.43;1.33;;;;;;;20.19;79.28;95784.66;4374331;32;20196;-45
2022/05/13 08:13:04;;;;;;;0.80;0.80;;;;;;;20.27;77.87;95782.94;4339874;32;20196;-44
2022/05/13 08:15:52;;;;;;;1.23;1.17;;;;;;;20.35;78.66;95782.81;4380824;32;20200;-44
2022/05/13 08:18:23;;;;;;;0.47;0.47;;;;;;;20.33;78.66;95776.97;4374884;32;20196;-43
2022/05/13 08:20:50;;;;;;;0.60;0.60;;;;;;;20.45;75.36;95776.94;4384414;32;20298;-44
2022/05/13 08:23:17;;;;;;;1.10;1.10;;;;;;;20.59;75.75;95777.28;4391040;32;20188;-44
2022/05/13 08:25:44;;;;;;;1.10;0.70;;;;;;;20.58;75.78;95781.13;4372214;32;20191;-47
2022/05/13 08:28:11;;;;;;;0.93;0.93;;;;;;;20.62;74.55;95781.22;4379927;32;20189;-44
2022/05/13 08:30:38;;;;;;;0.67;0.67;;;;;;;20.75;75.97;95774.62;4357468;32;20230;-43
2022/05/13 08:33:09;;;;;;;1.17;0.90;;;;;;;20.64;74.91;95772.78;4358756;32;20194;-45
2022/05/13 08:35:37;;;;;;;2.97;1.67;;;;;;;20.65;74.87;95768.97;4377633;32;20188;-43
2022/05/13 08:38:03;;;;;;;0.83;0.83;;;;;;;20.60;76.41;95767.28;4387534;32;20215;-44
2022/05/13 08:41:07;;;;;;;1.27;1.27;;;;;;;20.59;74.46;95771.91;4365051;32;20176;-46
2022/05/13 08:43:56;;;;;;;0.50;0.50;;;;;;;20.44;74.29;95763.78;4388842;32;20258;-43
2022/05/13 08:46:46;;;;;;;0.77;0.77;;;;;;;20.48;74.86;95762.78;4384406;32;20185;-46
2022/05/13 08:50:02;;;;;;;0.87;0.87;;;;;;;20.48;74.43;95764.69;4388929;32;20200;-45
2022/05/13 08:55:50;;;;;;;0.87;0.87;;;;;;;20.48;74.49;95759.28;4364229;32;20202;-43
2022/05/13 08:58:24;;;;;;;1.00;1.00;;;;;;;20.35;75.09;95757.75;4368482;32;20192;-44
2022/05/13 09:00:51;;;;;;;1.00;1.00;;;;;;;20.32;75.71;95755.75;4338936;32;20254;-43
2022/05/13 09:03:54;;;;;;;0.93;0.93;;;;;;;20.31;74.56;95760.38;4364708;32;20282;-43
2022/05/13 09:06:56;;;;;;;0.80;0.80;;;;;;;20.18;76.92;95753.44;4384473;32;20203;-46
2022/05/13 09:09:23;;;;;;;0.90;0.90;;;;;;;20.28;75.86;95750.28;4368079;32;20186;-44
2022/05/13 09:12:00;;;;;;;4.43;1.43;;;;;;;20.15;76.35;95756.84;4365073;32;20232;-44
2022/05/13 09:15:09;;;;;;;0.80;0.80;;;;;;;20.13;76.08;95753.72;4353992;32;20180;-43
2022/05/13 09:17:48;;;;;;;0.87;0.87;;;;;;;20.14;76.29;95744.50;4370511;32;20226;-44
2022/05/13 09:20:18;;;;;;;0.70;0.70;;;;;;;20.17;75.17;95743.78;4387343;32;20200;-44
2022/05/13 09:22:52;;;;;;;0.60;0.60;;;;;;;20.32;74.05;95750.38;4374725;32;20184;-43
2022/05/13 09:25:53;;;;;;;1.53;1.27;;;;;;;20.51;73.25;95748.59;4365116;32;20234;-46
2022/05/13 09:28:21;;;;;;;0.80;0.80;;;;;;;20.55;73.63;95781.06;4358956;32;20263;-46
2022/05/13 09:30:50;;;;;;;0.73;0.73;;;;;;;20.36;76.48;95789.75;4344958;32;20192;-43
2022/05/13 09:33:31;;;;;;;0.70;0.70;;;;;;;19.93;80.28;95803.16;4375340;32;20203;-43
2022/05/13 09:35:59;;;;;;;0.60;0.60;;;;;;;19.92;79.67;95786.22;4368359;32;20184;-45
2022/05/13 09:38:31;;;;;;;0.97;0.97;;;;;;;19.93;80.61;95789.69;4378525;32;20218;-43
2022/05/13 09:41:10;;;;;;;0.50;0.50;;;;;;;19.83;80.43;95791.72;4365891;32;20251;-43
2022/05/13 09:43:50;;;;;;;1.03;1.00;;;;;;;19.90;79.96;95794.63;4370984;32;20184;-44
2022/05/13 09:47:20;;;;;;;3.50;1.10;;;;;;;19.78;81.81;95789.28;4354302;32;20236;-42
2022/05/13 09:49:43;;;;;;;0.60;0.60;;;;;;;19.73;80.75;95781.44;4350211;32;20291;-44
2022/05/13 09:52:16;;;;;;;0.37;0.37;;;;;;;19.72;79.38;95796.03;4368461;32;20553;-43
2022/05/13 09:54:43;;;;;;;2.50;1.23;;;;;;;19.74;79.66;95801.87;4353231;32;20199;-43
2022/05/13 09:57:27;;;;;;;0.40;0.40;;;;;;;19.75;80.66;95798.03;4331286;32;20184;-42
2022/05/13 09:59:55;;;;;;;0.77;0.77;;;;;;;19.82;80.46;95795.53;4368616;32;20188;-42
2022/05/13 10:02:29;;;;;;;0.43;0.43;;;;;;;19.85;81.38;95794.88;4365993;32;20201;-42
2022/05/13 10:05:15;;;;;;;0.47;0.47;;;;;;;19.94;79.68;95783.97;4378278;32;20187;-42
2022/05/13 10:07:52;;;;;;;0.67;0.67;;;;;;;19.90;80.89;95788.47;4378483;32;20192;-42
2022/05/13 10:16:02;;;;;;;0.50;0.50;;;;;;;20.16;80.51;95769.94;4367343;32;20271;-43
2022/05/13 10:18:35;;;;;;;0.63;0.63;;;;;;;20.19;79.66;95773.88;4379932;32;20198;-43
2022/05/13 10:21:18;;;;;;;0.50;0.50;;;;;;;20.16;79.83;95775.34;4379571;32;20184;-41
2022/05/13 10:24:24;;;;;;;0.73;0.50;;;;;;;20.22;79.95;95789.34;4356652;32;20215;-43
2022/05/13 10:26:50;;;;;;;0.57;0.57;;;;;;;20.10;79.75;95809.06;4367726;32;20220;-42
2022/05/13 10:29:30;;;;;;;0.67;0.67;;;;;;;20.07;79.71;95800.87;4368603;32;20227;-41
2022/05/13 10:31:56;;;;;;;0.80;0.80;;;;;;;20.05;79.32;95811.19;4334855;32;20270;-42
2022/05/13 10:34:38;;;;;;;0.40;0.40;;;;;;;19.97;79.25;95812.91;4345299;32;20185;-42
2022/05/13 10:37:56;;;;;;;0.87;0.87;;;;;;;19.98;79.25;95819.06;4333604;32;20199;-43
2022/05/13 10:40:23;;;;;;;0.10;0.10;;;;;;;20.00;79.20;95831.06;4306421;32;20251;-59
2022/05/13 10:43:04;;;;;;;0.50;0.50;;;;;;;19.27;81.92;95828.44;4364875;32;20180;-57
2022/05/13 10:45:35;;;;;;;0.50;0.50;;;;;;;18.41;86.76;95823.97;4353125;32;20176;-59
2022/05/13 10:48:11;;;;;;;0.40;0.40;;;;;;;18.02;88.90;95811.84;4389641;32;20180;-58
2022/05/13 10:50:52;;;;;;;0.60;0.60;;;;;;;17.75;90.36;95824.66;4373329;32;20188;-58
2022/05/13 10:53:39;;;;;;;0.90;0.90;;;;;;;17.50;92.51;95841.66;4362022;32;20192;-58
2022/05/13 10:56:21;;;;;;;1.20;0.97;;;;;;;17.10;95.11;95849.28;4369094;32;20221;-58
2022/05/13 10:59:27;;;;;;;1.17;1.17;;;;;;;16.66;97.69;95842.47;4360954;32;20218;-58
2022/05/13 11:02:29;;;;;;;0.70;0.70;;;;;;;16.48;99.10;95833.66;4355408;32;20179;-58
2022/05/13 11:05:12;;;;;;;0.43;0.43;;;;;;;16.33;100.00;95829.59;4364630;32;20247;-58
2022/05/13 11:07:54;;;;;;;0.63;0.57;;;;;;;16.44;100.00;95844.22;4352082;32;20311;-58
2022/05/13 11:10:42;;;;;;;1.00;1.00;;;;;;;16.43;100.00;95850.66;4351484;32;20192;-58
2022/05/13 11:13:23;;;;;;;0.73;0.73;;;;;;;16.36;100.00;95852.28;4375410;32;20210;-59
2022/05/13 11:16:01;;;;;;;0.57;0.57;;;;;;;16.46;100.00;95846.56;4347861;32;20191;-58
2022/05/13 11:18:39;;;;;;;0.57;0.57;;;;;;;16.57;99.10;95847.03;4313290;32;20184;-59
2022/05/13 11:21:19;;;;;;;0.30;0.30;;;;;;;16.37;100.00;95849.28;4363025;32;20238;-59
2022/05/13 11:27:41;;;;;;;1.00;1.00;;;;;;;16.56;99.51;95848.94;4337744;32;20226;-58
2022/05/13 11:30:18;;;;;;;0.67;0.67;;;;;;;16.65;99.91;95841.69;4361558;32;20188;-59
2022/05/13 11:32:54;;;;;;;0.37;0.37;;;;;;;16.76;98.52;95837.56;4365933;32;20188;-59
2022/05/13 11:35:41;;;;;;;1.07;0.97;;;;;;;16.66;99.48;95842.47;4365357;32;20195;-59
2022/05/13 11:38:18;;;;;;;0.63;0.63;;;;;;;16.60;99.46;95841.06;4369882;32;20200;-58
2022/05/13 11:41:08;;;;;;;0.23;0.23;;;;;;;16.62;99.38;95834.28;4372375;32;20206;-59
2022/05/13 11:43:49;;;;;;;0.83;0.83;;;;;;;16.52;100.00;95834.59;4364021;32;20188;-58
2022/05/13 11:46:17;;;;;;;0.40;0.40;;;;;;;16.58;100.00;95841.38;4321764;32;20192;-59
2022/05/13 11:48:46;;;;;;;0.77;0.77;;;;;;;16.59;99.48;95842.94;4333951;32;20188;-59
2022/05/13 11:51:20;;;;;;;0.50;0.50;;;;;;;16.56;99.12;95840.09;4360011;32;20193;-58
2022/05/13 11:54:01;;;;;;;0.60;0.60;;;;;;;16.43;100.00;95850.66;4357212;32;20192;-59
2022/05/13 11:56:32;;;;;;;0.50;0.50;;;;;;;16.55;99.45;95835.84;4387361;32;20279;-59
2022/05/13 11:59:03;;;;;;;0.97;0.90;;;;;;;16.59;99.82;95834.13;4341315;32;20219;-58
2022/05/13 12:01:34;;;;;;;0.53;0.53;;;;;;;16.53;100.00;95835.38;4347372;32;20181;-58
2022/05/13 12:04:14;;;;;;;7.97;2.20;;;;;;;16.53;100.00;95846.87;4359428;32;20225;-59
2022/05/13 12:06:56;;;;;;;1.53;1.43;;;;;;;16.73;100.00;95840.09;4354889;32;20251;-58
2022/05/13 12:09:36;;;;;;;0.83;0.83;;;;;;;16.80;100.00;95830.47;4344794;32;20269;-59
2022/05/13 12:12:23;;;;;;;1.07;1.07;;;;;;;16.65;100.00;95833.66;4300086;32;20208;-57
2022/05/13 12:15:07;;;;;;;0.60;0.60;;;;;;;16.70;100.00;95835.38;4344126;32;20188;-58
2022/05/13 12:17:47;;;;;;;0.50;0.50;;;;;;;16.70;100.00;95827.34;4334680;32;20234;-58
2022/05/13 12:20:43;;;;;;;1.30;0.70;;;;;;;16.84;100.00;95836.75;4355690;32;20193;-59
2022/05/13 12:23:22;;;;;;;0.60;0.60;;;;;;;17.06;99.06;95843.75;4361696;32;20200;-58
2022/05/13 12:26:06;;;;;;;0.57;0.57;;;;;;;17.26;100.00;95836.91;4341374;32;20180;-57
2022/05/13 12:28:56;;;;;;;0.77;0.77;;;;;;;17.38;98.86;95839.69;4353892;32;20219;-60
2022/05/13 12:31:40;;;;;;;0.97;0.97;;;;;;;17.57;98.61;95838.50;4361078;32;20261;-59